Latest Coastal Weather Observations for Willis Island

IDQ60701

Issued at 7:31 am EST Sunday 21 December 2014 (issued every 10 minutes, with the page automatically refreshed every 10 minutes)

About coastal observations | Map of coastal stations | Coastal observations for QLD | Marine services | Other Formats
Station Details ID: 200283 Name: WILLIS ISLAND Lat: -16.29 Lon: 149.97 Height: 9.29 m
Data from the previous 72 hours. | See also: Recent months at Willis Island
Date/Time
EST
Temp

°C
Wind Pressure Rain
since 9am
mm
Weather Cloud Vis
km
Sea
Height
m
Swell
Dir
 
Speed
knots
Gust
knots
hPa Trend Height
m
Period
s
Dir
21/07:30am 29.0 E 12 14 1011.3 - 0.0 - - - - - - -
21/07:00am 28.4 ESE 12 15 1011.1 - 0.0 - - - - - - -
21/06:30am 27.8 E 12 15 1010.9 - 0.0 - - - - - - -
21/06:00am 27.5 E 12 14 1010.4 - 0.0 - - - - - - -
21/05:30am 27.0 E 12 14 1010.1 - 0.0 - - - - - - -
21/05:00am 27.0 ESE 13 15 1009.7 - 0.0 - - - - - - -
21/04:30am 27.0 E 13 15 1009.6 - 0.0 - - - - - - -
21/04:00am 27.0 ESE 14 16 1009.4 - 0.0 - - - - - - -
21/03:30am 27.0 ESE 13 15 1009.3 - 0.0 - - - - - - -
21/03:00am 27.0 ESE 13 16 1009.5 - 0.0 - - - - - - -
21/02:30am 27.0 ESE 15 17 1009.5 - 0.0 - - - - - - -
21/02:00am 27.1 ESE 15 17 1009.6 - 0.0 - - - - - - -
21/01:30am 27.3 ESE 15 16 1009.6 - 0.0 - - - - - - -
21/01:00am 27.3 E 15 17 1009.8 - 0.0 - - - - - - -
21/12:30am 27.5 ESE 16 18 1010.3 - 0.0 - - - - - - -
21/12:00am 27.5 ESE 16 17 1010.8 - 0.0 - - - - - - -
 
Date/Time
EST
Temp

°C
Wind Pressure Rain
since 9am
mm
Weather Cloud Vis
km
Sea
Height
m
Swell
Dir
 
Speed
knots
Gust
knots
hPa Trend Height
m
Period
s
Dir
20/11:30pm 27.6 ESE 15 18 1011.0 - 0.0 - - - - - - -
20/11:00pm 27.7 ESE 16 18 1011.3 - 0.0 - - - - - - -
20/10:30pm 27.7 E 15 17 1011.6 - 0.0 - - - - - - -
20/10:00pm 27.7 ESE 14 17 1011.7 - 0.0 - - - - - - -
20/09:30pm 27.8 ESE 14 17 1011.5 - 0.0 - - - - - - -
20/09:00pm 27.8 ESE 13 16 1011.2 - 0.0 - - - - - - -
20/08:30pm 27.7 E 13 15 1011.0 - 0.0 - - - - - - -
20/08:00pm 27.6 ESE 10 12 1010.6 - 0.0 - - - - - - -
20/07:30pm 27.4 SE 7 10 1010.4 - 0.0 - - - - - - -
20/07:00pm 27.4 ESE 7 9 1010.2 - 0.0 - - - - - - -
20/06:30pm 27.3 E 7 8 1009.8 - 0.0 - - - - - - -
20/06:00pm 27.9 ESE 11 13 1009.6 S 0.0 Distant precip. Partly cloudy 40 <0.5 0.3 20 SE
20/05:30pm 28.6 SE 7 9 1009.5 - 0.0 - - - - - - -
20/05:00pm 29.2 SE 7 8 1009.3 - 0.0 - - - - - - -
20/04:30pm 29.6 SE 7 9 1009.2 - 0.0 - - - - - - -
20/04:00pm 29.4 SE 7 9 1009.2 - 0.0 - - - - - - -
20/03:30pm 30.3 ESE 8 11 1009.1 - 0.0 - - - - - - -
20/03:00pm 30.1 ESE 8 10 1009.1 F 0.0 Fine Mostly clear 40 <0.1 0.2 6 SE
20/02:30pm 30.1 ESE 8 11 1009.1 - 0.0 - - - - - - -
20/02:00pm 29.7 ESE 6 8 1009.5 - 0.0 - - - - - - -
20/01:30pm 29.4 E 6 8 1009.8 - 0.0 - - - - - - -
20/01:00pm 30.5 ESE 8 11 1010.0 - 0.0 - - - - - - -
20/12:30pm 30.4 SE 9 11 1010.2 - 0.0 - - - - - - -
20/12:00pm 30.4 SE 9 11 1010.6 S 0.0 Fine Mostly clear 40 <0.5 0.3 11 SE
20/11:30am 30.4 SE 9 11 1011.1 - 0.0 - - - - - - -
20/11:00am 30.9 SE 8 10 1011.4 - 0.0 - - - - - - -
20/10:30am 30.3 SE 9 10 1011.6 - 0.0 - - - - - - -
20/10:00am 29.5 SE 7 9 1011.7 - 0.0 - - - - - - -
20/09:30am 29.5 ESE 7 9 1011.5 - 0.0 - - - - - - -
20/09:00am 29.4 ESE 6 8 1011.6 S 0.0 Fine Mostly clear 40 <0.5 0.3 12 SE
20/08:30am 29.2 E 8 9 1011.4 - 0.0 - - - - - - -
20/08:00am 29.0 E 9 10 1011.2 - 0.0 - - - - - - -
20/07:30am 28.5 E 9 11 1011.0 - 0.0 - - - - - - -
20/07:00am 28.0 E 9 11 1010.9 - 0.0 - - - - - - -
20/06:30am 27.6 E 9 11 1010.7 - 0.0 - - - - - - -
20/06:00am 27.0 E 9 11 1010.3 - 0.0 - - - - - - -
20/05:30am 26.7 ENE 7 8 1010.0 - 0.0 - - - - - - -
20/05:00am 26.8 ENE 6 8 1010.0 - 0.0 - - - - - - -
20/04:30am 26.7 E 8 9 1009.6 - 0.0 - - - - - - -
20/04:00am 26.5 E 8 9 1009.5 - 0.0 - - - - - - -
20/03:30am 26.5 ENE 9 11 1009.7 - 0.0 - - - - - - -
20/03:00am 26.4 E 9 11 1009.7 - 0.0 - - - - - - -
20/02:30am 26.4 ENE 10 12 1009.9 - 0.0 - - - - - - -
20/02:00am 26.5 E 10 11 1009.9 - 0.0 - - - - - - -
20/01:30am 26.5 E 11 13 1010.1 - 0.0 - - - - - - -
20/01:00am 26.5 E 9 11 1010.5 - 0.0 - - - - - - -
20/12:30am 26.5 E 10 12 1010.8 - 0.0 - - - - - - -
20/12:00am 26.8 E 9 11 1011.3 - 0.0 - - - - - - -
 
Date/Time
EST
Temp

°C
Wind Pressure Rain
since 9am
mm
Weather Cloud Vis
km
Sea
Height
m
Swell
Dir
 
Speed
knots
Gust
knots
hPa Trend Height
m
Period
s
Dir
19/11:30pm 26.8 E 9 11 1011.8 - 0.0 - - - - - - -
19/11:00pm 26.9 E 10 12 1011.9 - 0.0 - - - - - - -
19/10:30pm 27.0 E 11 13 1011.9 - 0.0 - - - - - - -
19/10:00pm 26.9 ESE 10 12 1012.1 - 0.0 - - - - - - -
19/09:30pm 27.0 ESE 10 12 1011.7 - 0.0 - - - - - - -
19/09:00pm 26.9 ESE 9 11 1011.8 - 0.0 - - - - - - -
19/08:30pm 26.9 ESE 8 10 1011.5 - 0.0 - - - - - - -
19/08:00pm 27.0 SE 9 11 1011.3 - 0.0 - - - - - - -
19/07:30pm 27.2 SE 10 12 1010.9 - 0.0 - - - - - - -
19/07:00pm 27.1 SE 9 11 1010.4 - 0.0 - - - - - - -
19/06:30pm 27.2 SE 9 11 1010.2 - 0.0 - - - - - - -
19/06:00pm 27.5 ESE 7 9 1010.0 F 0.0 Fine Partly cloudy 40 <0.1 0.1 19 SE
19/05:30pm 28.1 ESE 7 9 1009.7 - 0.0 - - - - - - -
19/05:00pm 29.0 SSE 8 10 1009.4 - 0.0 - - - - - - -
19/04:30pm 28.9 SE 7 9 1009.3 - 0.0 - - - - - - -
19/04:00pm 29.6 SE 7 9 1009.2 - 0.0 - - - - - - -
19/03:30pm 29.7 ESE 6 8 1009.4 - 0.0 - - - - - - -
19/03:00pm 29.4 SSE 6 7 1009.7 S 0.0 Fine Partly cloudy 40 <0.1 0.2 10 SE
19/02:30pm 30.0 SSE 6 8 1009.9 - 0.0 - - - - - - -
19/02:00pm 29.7 S 6 7 1010.1 - 0.0 - - - - - - -
19/01:30pm 29.8 SE 4 6 1010.4 - 0.0 - - - - - - -
19/01:00pm 29.8 S 4 6 1010.8 - 0.0 - - - - - - -
19/12:30pm 29.7 S 5 6 1011.0 - 0.0 - - - - - - -
19/12:00pm 29.7 E 4 6 1011.1 R 0.0 Fine Partly cloudy 40 <0.1 0.3 10 E
19/11:30am 29.5 ENE 8 10 1010.9 - 0.0 - - - - - - -
19/11:00am 30.0 ENE 8 10 1010.9 - 0.0 - - - - - - -
19/10:30am 29.5 ENE 7 9 1011.2 - 0.0 - - - - - - -
19/10:00am 28.8 E 5 6 1011.7 - 0.0 - - - - - - -
19/09:30am 29.0 E 4 6 1012.1 - 0.0 - - - - - - -
19/09:00am 28.9 E 5 7 1012.0 F 0.0 Fine Partly cloudy 40 <0.5 0.3 10 E
19/08:30am 28.7 ENE 7 8 1011.9 - 0.0 - - - - - - -
19/08:00am 28.3 ENE 6 8 1012.0 - 0.0 - - - - - - -
19/07:30am 27.6 E 8 10 1011.8 - 0.0 - - - - - - -
19/07:00am 27.5 ENE 7 10 1011.6 - 0.0 - - - - - - -
19/06:30am 27.2 E 6 8 1011.8 - 0.0 - - - - - - -
19/06:00am 26.5 ESE 6 7 1011.5 - 0.0 - - - - - - -
19/05:30am 26.0 E 6 8 1011.1 - 0.0 - - - - - - -
19/05:00am 26.0 E 7 8 1010.9 - 0.0 - - - - - - -
19/04:30am 25.8 ESE 6 7 1010.8 - 0.0 - - - - - - -
19/04:00am 26.0 E 5 8 1010.9 - 0.0 - - - - - - -
19/03:30am 26.1 E 6 8 1010.6 - 0.0 - - - - - - -
19/03:00am 26.0 E 6 7 1010.8 - 0.0 - - - - - - -
19/02:30am 26.1 E 7 8 1010.7 - 0.0 - - - - - - -
19/02:00am 26.0 E 6 8 1011.0 - 0.0 - - - - - - -
19/01:30am 26.0 E 7 8 1011.3 - 0.0 - - - - - - -
19/01:00am 26.1 E 8 10 1011.3 - 0.0 - - - - - - -
19/12:30am 26.4 E 9 11 1011.2 - 0.0 - - - - - - -
19/12:00am 26.4 E 9 11 1011.5 - 0.0 - - - - - - -
 
Date/Time
EST
Temp

°C
Wind Pressure Rain
since 9am
mm
Weather Cloud Vis
km
Sea
Height
m
Swell
Dir
 
Speed
knots
Gust
knots
hPa Trend Height
m
Period
s
Dir
18/11:30pm 26.4 E 7 9 1012.1 - 0.0 - - - - - - -
18/11:00pm 26.5 ESE 6 8 1012.5 - 0.0 - - - - - - -
18/10:30pm 26.6 ESE 8 9 1012.5 - 0.0 - - - - - - -
18/10:00pm 26.7 ESE 8 9 1012.4 - 0.0 - - - - - - -
18/09:30pm 26.7 ESE 10 11 1011.9 - 0.0 - - - - - - -
18/09:00pm 26.8 E 8 10 1011.5 - 0.0 - - - - - - -
18/08:30pm 26.9 ENE 9 11 1011.0 - 0.0 - - - - - - -
18/08:00pm 26.9 E 9 11 1010.7 - 0.0 - - - - - - -
18/07:30pm 26.8 ENE 10 11 1010.3 - 0.0 - - - - - - -
18/07:00pm 27.0 E 9 11 1009.9 - 0.0 - - - - - - -
18/06:30pm 27.0 E 10 11 1009.7 - 0.0 - - - - - - -
18/06:00pm 27.4 E 10 12 1009.9 F 0.0 Fine Mostly clear 40 1 0.6 8 SE
18/05:30pm 27.7 E 9 10 1009.7 - 0.0 - - - - - - -
18/05:00pm 28.1 E 9 11 1009.8 - 0.0 - - - - - - -
18/04:30pm 28.6 E 8 11 1009.5 - 0.0 - - - - - - -
18/04:00pm 28.9 E 9 11 1009.5 - 0.0 - - - - - - -
18/03:30pm 29.2 E 11 13 1009.5 - 0.0 - - - - - - -
18/03:00pm 29.8 E 9 11 1009.6 S 0.0 Fine Mostly clear 40 1 0.6 8 SE
18/02:30pm 29.2 E 11 13 1009.9 - 0.0 - - - - - - -
18/02:00pm 29.8 E 12 14 1010.1 - 0.0 - - - - - - -
18/01:30pm 30.0 ESE 12 14 1010.6 - 0.0 - - - - - - -
18/01:00pm 29.7 E 11 14 1010.8 - 0.0 - - - - - - -
18/12:30pm 29.5 E 13 15 1010.8 - 0.0 - - - - - - -
18/12:00pm 29.4 E 13 15 1011.0 F 0.0 Fine Mostly clear 40 1 0.8 8 SE
18/11:30am 29.2 E 13 17 1011.3 - 0.0 - - - - - - -
18/11:00am 29.5 E 14 18 1011.5 - 0.0 - - - - - - -
18/10:30am 29.3 E 12 14 1011.8 - 0.0 - - - - - - -
18/10:00am 29.2 E 13 15 1011.9 - 0.0 - - - - - - -
18/09:30am 28.7 E 12 15 1012.2 - 0.0 - - - - - - -
18/09:00am 28.8 E 11 14 1012.4 S 0.0 Fine Mostly clear 40 1 0.7 8 SE
18/08:30am 28.5 E 12 14 1012.3 - 0.0 - - - - - - -
18/08:00am 28.4 E 11 14 1012.2 - 0.0 - - - - - - -

Other Formats:

Comma delimited format used in spreadsheet applications
http://www.bom.gov.au/fwo/IDQ60701/IDQ60701.94299.axf

JavaScript Object Notation format (JSON) in row-major order
http://www.bom.gov.au/fwo/IDQ60701/IDQ60701.94299.json